Time;durP1;ratioP1;P1;durP2;ratioP2;P2;SDS_P1;SDS_P2;PMS_P1;PMS_P2;Temp;Humidity;BMP_temperature;BMP_pressure;BME280_temperature;BME280_humidity;BME280_pressure;Samples;Min_cycle;Max_cycle;Signal;HPM_P1;HPM_P2
2022/01/04 00:02:20;;;;;;;11.18;3.25;;;;;;;5.90;88.36;100224.94;5038807;28;20029;-83
2022/01/04 00:04:45;;;;;;;3.83;3.05;;;;;;;5.85;88.50;100219.47;5035931;28;20032;-84
2022/01/04 00:07:11;;;;;;;10.68;2.85;;;;;;;5.81;88.82;100218.31;5023614;28;20489;-83
2022/01/04 00:09:40;;;;;;;9.80;4.07;;;;;;;5.76;88.72;100217.16;5044187;28;20025;-83
2022/01/04 00:14:56;;;;;;;7.25;3.50;;;;;;;5.68;88.76;100209.50;5039639;28;20051;-83
2022/01/04 00:17:21;;;;;;;9.07;3.88;;;;;;;5.65;88.81;100203.84;5029315;28;20016;-83
2022/01/04 00:19:47;;;;;;;9.95;3.28;;;;;;;5.63;89.12;100197.97;5027330;28;20061;-83
2022/01/04 00:22:12;;;;;;;7.53;3.30;;;;;;;5.61;88.94;100200.84;5040476;28;20063;-83
2022/01/04 00:24:38;;;;;;;7.65;3.60;;;;;;;5.63;88.98;100193.44;5027822;28;20025;-83
2022/01/04 00:27:04;;;;;;;13.63;3.45;;;;;;;5.62;88.83;100189.19;5025907;28;20022;-83
2022/01/04 00:29:30;;;;;;;8.38;3.42;;;;;;;5.64;88.89;100188.94;5044009;28;20148;-83
2022/01/04 00:31:55;;;;;;;8.13;3.40;;;;;;;5.64;88.83;100188.94;5044803;28;20107;-83
2022/01/04 00:34:21;;;;;;;7.68;2.92;;;;;;;5.61;88.91;100182.25;5027098;28;20040;-83
2022/01/04 00:36:46;;;;;;;7.00;3.28;;;;;;;5.57;89.04;100181.09;5026366;28;20509;-83
2022/01/04 00:39:11;;;;;;;9.05;3.30;;;;;;;5.56;88.78;100186.59;5042955;22;20091;-69
2022/01/04 00:41:38;;;;;;;11.25;3.63;;;;;;;5.53;88.91;100177.25;5030290;28;20087;-69
2022/01/04 00:44:04;;;;;;;10.10;3.10;;;;;;;5.53;88.88;100182.56;5032451;28;20032;-68
2022/01/04 00:46:30;;;;;;;8.02;3.67;;;;;;;5.53;88.68;100173.78;5024451;28;20028;-68
2022/01/04 00:49:11;;;;;;;6.55;3.10;;;;;;;5.52;88.50;100175.63;5051278;28;20025;-69
2022/01/04 00:51:54;;;;;;;6.05;3.22;;;;;;;5.49;88.95;100165.47;5055855;28;20028;-72
2022/01/04 00:54:21;;;;;;;7.53;3.47;;;;;;;5.52;88.78;100162.34;5055528;28;20559;-71
2022/01/04 00:56:47;;;;;;;7.15;3.25;;;;;;;5.52;88.89;100162.34;5051131;28;20041;-72
2022/01/04 00:59:14;;;;;;;7.78;2.85;;;;;;;5.48;88.67;100166.50;5055096;28;20028;-71
2022/01/04 01:01:40;;;;;;;6.53;3.13;;;;;;;5.50;88.88;100164.41;5056655;28;20543;-73
2022/01/04 01:04:07;;;;;;;6.43;2.75;;;;;;;5.52;88.55;100164.19;5053120;28;20139;-71
2022/01/04 01:06:33;;;;;;;8.00;3.20;;;;;;;5.54;88.93;100160.25;5054645;28;20890;-71
2022/01/04 01:08:59;;;;;;;9.15;3.30;;;;;;;5.52;88.97;100158.88;5049221;28;20044;-71
2022/01/04 01:11:26;;;;;;;12.02;3.88;;;;;;;5.57;88.68;100148.41;5042704;28;20127;-70
2022/01/04 01:13:52;;;;;;;7.45;3.15;;;;;;;5.59;89.14;100143.66;5055379;28;20029;-71
2022/01/04 01:16:18;;;;;;;7.28;2.92;;;;;;;5.63;88.70;100140.31;5051977;28;20036;-71
2022/01/04 01:18:44;;;;;;;8.25;2.90;;;;;;;5.65;88.91;100140.06;5051772;28;20511;-73
2022/01/04 01:21:10;;;;;;;6.10;3.50;;;;;;;5.70;89.10;100140.97;5056615;28;20040;-71
2022/01/04 01:23:36;;;;;;;4.75;2.95;;;;;;;5.71;88.69;100134.63;5056592;28;20028;-71
2022/01/04 01:26:04;;;;;;;5.97;3.03;;;;;;;5.74;88.88;100130.69;5046417;28;20032;-71
2022/01/04 01:28:33;;;;;;;5.55;2.70;;;;;;;5.75;88.85;100132.34;5041157;28;20032;-71
2022/01/04 01:30:58;;;;;;;4.65;2.88;;;;;;;5.72;89.20;100120.28;5053882;28;20037;-71
2022/01/04 01:33:24;;;;;;;8.65;3.78;;;;;;;5.73;89.24;100115.78;5057226;28;20048;-73
2022/01/04 01:35:50;;;;;;;7.13;2.95;;;;;;;5.72;88.96;100114.16;5055006;28;20062;-71
2022/01/04 01:38:17;;;;;;;9.52;3.17;;;;;;;5.70;89.43;100117.06;5061254;28;20530;-71
2022/01/04 01:40:43;;;;;;;8.63;2.92;;;;;;;5.70;89.25;100109.09;5061043;28;20032;-71
2022/01/04 01:43:09;;;;;;;6.05;2.75;;;;;;;5.70;89.54;100106.44;5047235;28;20028;-71
2022/01/04 01:45:35;;;;;;;6.95;2.55;;;;;;;5.66;89.55;100102.63;5056316;28;20078;-72
2022/01/04 01:48:01;;;;;;;5.43;3.00;;;;;;;5.66;89.73;100091.19;5047053;28;20112;-71
2022/01/04 01:50:27;;;;;;;11.70;3.10;;;;;;;5.66;90.03;100101.81;5053837;28;20104;-71
2022/01/04 01:52:54;;;;;;;8.27;2.88;;;;;;;5.66;89.84;100092.00;5058177;28;20526;-71
2022/01/04 01:55:22;;;;;;;7.95;2.88;;;;;;;5.69;90.38;100096.84;5060543;28;20409;-73
2022/01/04 01:57:49;;;;;;;6.97;2.60;;;;;;;5.70;90.30;100093.13;5036886;28;20035;-71
2022/01/04 02:00:17;;;;;;;6.65;2.88;;;;;;;5.72;90.10;100099.03;5054132;28;20031;-71
2022/01/04 02:02:42;;;;;;;5.72;2.50;;;;;;;5.74;90.33;100088.16;5056193;28;20028;-71
2022/01/04 02:05:09;;;;;;;5.68;2.13;;;;;;;5.76;90.40;100089.56;5059478;28;20588;-71
2022/01/04 02:07:36;;;;;;;6.03;2.60;;;;;;;5.76;90.49;100086.09;5052337;28;20021;-71
2022/01/04 02:10:03;;;;;;;5.45;2.28;;;;;;;5.78;90.10;100077.91;5054043;28;20036;-71
2022/01/04 02:12:33;;;;;;;6.55;2.60;;;;;;;5.78;90.35;100083.22;5057686;28;20043;-72
2022/01/04 02:14:59;;;;;;;4.72;2.20;;;;;;;5.78;90.09;100073.41;5055753;28;20166;-71
2022/01/04 02:17:26;;;;;;;7.90;3.00;;;;;;;5.80;89.96;100078.47;5052423;28;20650;-73
2022/01/04 02:19:59;;;;;;;4.70;2.53;;;;;;;5.79;90.13;100074.19;5044915;28;20119;-72
2022/01/04 02:22:26;;;;;;;7.60;2.60;;;;;;;5.82;90.00;100068.41;5057877;28;20150;-73
2022/01/04 02:24:51;;;;;;;6.43;2.80;;;;;;;5.79;90.19;100059.06;5059719;28;20024;-71
2022/01/04 02:27:18;;;;;;;4.47;2.33;;;;;;;5.78;90.62;100056.63;5058725;28;20021;-72
2022/01/04 02:29:44;;;;;;;9.27;2.60;;;;;;;5.81;90.33;100056.97;5051152;28;20491;-73
2022/01/04 02:32:11;;;;;;;6.53;2.30;;;;;;;5.79;90.79;100058.25;5054973;28;20048;-72
2022/01/04 02:34:36;;;;;;;9.25;2.92;;;;;;;5.80;90.70;100055.34;5043790;28;20028;-74
2022/01/04 02:37:02;;;;;;;6.38;2.75;;;;;;;5.80;90.40;100047.38;5054777;28;20032;-71
2022/01/04 02:39:28;;;;;;;3.72;2.08;;;;;;;5.82;90.44;100050.63;5055057;28;20571;-72
2022/01/04 02:41:53;;;;;;;6.13;2.25;;;;;;;5.83;90.32;100038.13;5052594;28;20119;-73
2022/01/04 02:44:19;;;;;;;4.57;2.22;;;;;;;5.82;90.25;100041.84;5053431;28;20029;-71
2022/01/04 02:46:44;;;;;;;6.70;2.70;;;;;;;5.78;90.36;100046.00;5037060;28;20751;-71
2022/01/04 02:49:10;;;;;;;3.63;2.20;;;;;;;5.77;90.46;100042.53;5051335;28;20032;-71
2022/01/04 02:51:36;;;;;;;4.45;2.38;;;;;;;5.76;90.34;100035.59;5054362;28;20472;-71
2022/01/04 02:54:01;;;;;;;6.78;2.20;;;;;;;5.75;90.45;100031.34;5055244;28;20041;-71
2022/01/04 02:56:27;;;;;;;4.25;2.30;;;;;;;5.72;90.27;100026.47;5051595;28;20063;-72
2022/01/04 02:58:53;;;;;;;6.10;2.10;;;;;;;5.69;90.58;100022.41;5052071;28;20092;-73
2022/01/04 03:01:18;;;;;;;4.10;2.05;;;;;;;5.70;90.66;100029.34;5054646;28;20028;-73
2022/01/04 03:03:44;;;;;;;4.97;2.28;;;;;;;5.70;90.46;100013.41;5048903;28;20501;-71
2022/01/04 03:06:13;;;;;;;6.18;2.25;;;;;;;5.68;90.17;100012.03;5055330;28;20029;-73
2022/01/04 03:08:39;;;;;;;6.43;2.78;;;;;;;5.66;90.51;100020.25;5053072;28;20078;-71
2022/01/04 03:11:05;;;;;;;6.15;2.33;;;;;;;5.65;90.24;100017.81;5059410;28;20044;-72
2022/01/04 03:13:30;;;;;;;4.97;2.45;;;;;;;5.61;90.54;100025.44;5039853;28;20037;-71
2022/01/04 03:15:56;;;;;;;4.00;2.13;;;;;;;5.60;90.32;100009.75;5059102;28;20103;-72
2022/01/04 03:18:22;;;;;;;5.28;2.10;;;;;;;5.59;90.29;100005.47;5055038;28;20062;-71
2022/01/04 03:20:47;;;;;;;7.28;2.55;;;;;;;5.56;90.44;100006.72;5055663;28;20560;-71
2022/01/04 03:23:13;;;;;;;4.88;2.10;;;;;;;5.55;90.60;99998.97;5059548;28;20021;-71
2022/01/04 03:25:40;;;;;;;6.88;2.03;;;;;;;5.53;90.47;100001.88;5058012;28;20028;-72
2022/01/04 03:28:06;;;;;;;5.00;2.20;;;;;;;5.49;90.54;99995.41;5055959;28;20580;-72
2022/01/04 03:30:33;;;;;;;7.78;2.22;;;;;;;5.46;90.38;99995.88;5057660;28;20029;-71
2022/01/04 03:32:58;;;;;;;7.40;2.33;;;;;;;5.45;90.11;99983.66;5053516;28;20110;-72
2022/01/04 03:35:24;;;;;;;4.22;2.17;;;;;;;5.43;90.30;99981.22;5057134;28;20070;-71
2022/01/04 03:37:50;;;;;;;9.15;3.05;;;;;;;5.41;90.11;99982.50;5057606;28;20119;-71
2022/01/04 03:40:16;;;;;;;7.05;2.05;;;;;;;5.37;90.60;99978.66;5057296;28;20028;-71
2022/01/04 03:42:41;;;;;;;3.67;2.35;;;;;;;5.44;90.38;99976.72;5055126;28;20448;-71
2022/01/04 03:45:07;;;;;;;7.32;2.10;;;;;;;5.40;89.80;99963.09;5056653;28;20428;-72
2022/01/04 03:47:33;;;;;;;5.03;2.22;;;;;;;5.40;90.01;99972.91;5044882;28;20558;-72
2022/01/04 03:49:58;;;;;;;3.67;2.13;;;;;;;5.36;90.19;99966.44;5059911;28;20139;-71
2022/01/04 03:52:24;;;;;;;6.45;2.25;;;;;;;5.36;90.19;99963.78;5058225;28;20021;-71
2022/01/04 03:54:50;;;;;;;2.90;1.92;;;;;;;5.34;90.28;99955.22;5057782;28;20557;-72
2022/01/04 03:57:15;;;;;;;9.75;2.35;;;;;;;5.26;90.18;99952.94;5055473;28;21016;-71
2022/01/04 03:59:41;;;;;;;7.72;2.00;;;;;;;5.27;90.41;99944.75;5054557;28;20040;-72
2022/01/04 04:02:06;;;;;;;5.80;2.42;;;;;;;5.32;90.43;99944.84;5049699;28;20052;-70
2022/01/04 04:04:32;;;;;;;5.82;2.33;;;;;;;5.31;90.28;99939.75;5053997;28;20452;-71
2022/01/04 04:06:58;;;;;;;4.57;2.42;;;;;;;5.30;90.01;99935.50;5052745;28;20260;-72
2022/01/04 04:09:23;;;;;;;5.00;2.25;;;;;;;5.30;89.93;99938.97;5055736;28;20025;-71
2022/01/04 04:11:49;;;;;;;5.35;2.22;;;;;;;5.15;89.58;99930.66;5054035;28;20099;-72
2022/01/04 04:14:14;;;;;;;4.50;2.40;;;;;;;5.00;89.94;99927.66;5051391;28;20040;-71
2022/01/04 04:16:39;;;;;;;6.53;2.08;;;;;;;4.96;90.07;99927.31;5052468;28;20483;-71
2022/01/04 04:19:05;;;;;;;6.13;2.08;;;;;;;4.88;90.39;99929.53;5041998;28;20035;-71
2022/01/04 04:21:31;;;;;;;4.82;2.25;;;;;;;4.79;90.29;99927.19;5054817;28;20123;-71
2022/01/04 04:23:56;;;;;;;4.55;2.25;;;;;;;4.70;90.80;99927.78;5057525;28;20024;-73
2022/01/04 04:26:22;;;;;;;5.30;2.25;;;;;;;4.63;90.82;99927.88;5054313;28;20472;-71
2022/01/04 04:28:47;;;;;;;8.70;2.08;;;;;;;4.61;91.28;99923.84;5056443;28;20104;-72
2022/01/04 04:31:13;;;;;;;6.13;2.38;;;;;;;4.58;91.33;99908.38;5055207;28;20016;-71
2022/01/04 04:33:38;;;;;;;7.15;2.75;;;;;;;4.55;91.29;99913.09;5057282;28;20047;-71
2022/01/04 04:36:08;;;;;;;5.55;2.38;;;;;;;4.52;91.44;99908.25;5052433;28;20048;-71
2022/01/04 04:38:33;;;;;;;5.88;2.55;;;;;;;4.62;92.11;99912.19;5053968;28;20032;-73
2022/01/04 04:40:59;;;;;;;5.22;2.17;;;;;;;4.66;91.96;99900.88;5058377;28;20031;-71
2022/01/04 04:43:24;;;;;;;6.20;2.35;;;;;;;4.69;91.67;99905.75;5054581;28;20036;-71
2022/01/04 04:45:50;;;;;;;7.45;2.35;;;;;;;4.78;91.51;99906.19;5048664;28;20423;-71
2022/01/04 04:48:15;;;;;;;8.85;2.90;;;;;;;4.80;91.65;99890.84;5053351;28;21328;-73
2022/01/04 04:50:41;;;;;;;6.85;1.95;;;;;;;4.92;91.33;99894.31;5040945;28;20642;-70
2022/01/04 04:53:06;;;;;;;5.10;2.92;;;;;;;4.98;90.98;99893.38;5057311;28;20036;-71
2022/01/04 04:55:32;;;;;;;4.15;2.42;;;;;;;4.99;90.64;99896.84;5053243;28;20036;-72
2022/01/04 04:57:57;;;;;;;5.55;1.85;;;;;;;4.95;90.31;99888.53;5055861;28;20021;-71
2022/01/04 05:00:23;;;;;;;7.85;2.38;;;;;;;4.88;89.90;99881.75;5057797;28;20036;-72
2022/01/04 05:02:49;;;;;;;5.20;2.35;;;;;;;4.78;90.49;99882.31;5034547;28;20190;-71
2022/01/04 05:05:14;;;;;;;5.05;2.03;;;;;;;4.75;90.44;99882.78;5051987;28;20028;-71
2022/01/04 05:07:39;;;;;;;6.75;2.20;;;;;;;4.78;91.14;99869.84;5058842;28;20082;-71
2022/01/04 05:10:07;;;;;;;4.00;2.33;;;;;;;4.84;91.33;99871.56;5058682;28;20126;-73
2022/01/04 05:12:33;;;;;;;4.90;2.20;;;;;;;4.91;91.06;99866.16;5054785;28;20116;-71
2022/01/04 05:14:58;;;;;;;6.43;2.22;;;;;;;4.96;90.83;99868.09;5053754;28;20103;-71
2022/01/04 05:17:24;;;;;;;5.43;1.90;;;;;;;4.99;90.76;99863.13;5052537;28;20028;-71
2022/01/04 05:19:49;;;;;;;5.07;1.88;;;;;;;5.04;90.14;99860.59;5039583;28;20059;-71
2022/01/04 05:22:16;;;;;;;5.82;2.30;;;;;;;5.09;90.46;99851.94;5053897;28;20025;-73
2022/01/04 05:24:41;;;;;;;7.03;2.63;;;;;;;5.13;90.28;99837.94;5053169;28;20033;-72
2022/01/04 05:27:07;;;;;;;4.22;2.20;;;;;;;5.16;90.45;99848.09;5052014;28;20268;-71
2022/01/04 05:29:33;;;;;;;5.93;2.13;;;;;;;5.20;90.66;99834.34;5052170;28;20531;-71
2022/01/04 05:31:59;;;;;;;6.75;2.50;;;;;;;5.21;90.55;99836.00;5043549;28;20051;-71
2022/01/04 05:34:25;;;;;;;7.00;2.30;;;;;;;5.27;90.09;99822.56;5048877;28;20096;-71
2022/01/04 05:36:51;;;;;;;4.82;2.45;;;;;;;5.29;90.47;99824.97;5052600;28;20048;-71
2022/01/04 05:39:17;;;;;;;7.80;2.53;;;;;;;5.31;90.07;99825.56;5053407;28;20029;-71
2022/01/04 05:41:43;;;;;;;7.05;2.33;;;;;;;5.32;90.64;99824.50;5056306;28;20081;-72
2022/01/04 05:44:08;;;;;;;6.72;2.83;;;;;;;5.34;90.68;99822.41;5050189;28;20111;-71
2022/01/04 05:46:34;;;;;;;12.13;2.80;;;;;;;5.37;90.30;99816.63;5043290;28;20510;-72
2022/01/04 05:49:00;;;;;;;5.72;2.53;;;;;;;5.38;90.17;99813.72;5053886;28;20033;-73
2022/01/04 05:51:25;;;;;;;6.05;2.50;;;;;;;5.41;90.04;99815.94;5061613;28;20423;-71
2022/01/04 05:53:51;;;;;;;5.40;2.70;;;;;;;5.42;90.44;99824.72;5056233;28;20029;-71
2022/01/04 05:56:16;;;;;;;7.22;2.70;;;;;;;5.42;90.75;99827.38;5053313;28;20029;-71
2022/01/04 05:58:42;;;;;;;7.70;3.38;;;;;;;5.43;90.66;99807.72;5052816;28;20036;-71
2022/01/04 06:01:07;;;;;;;7.38;2.35;;;;;;;5.44;90.41;99804.84;5052654;28;20283;-71
2022/01/04 06:03:33;;;;;;;5.95;2.20;;;;;;;5.46;90.45;99809.91;5056006;28;20021;-72
2022/01/04 06:05:59;;;;;;;5.30;2.42;;;;;;;5.47;90.61;99803.56;5055721;28;20056;-72
2022/01/04 06:08:31;;;;;;;7.50;2.45;;;;;;;5.52;90.34;99806.28;5056002;28;20021;-74
2022/01/04 06:10:56;;;;;;;3.75;2.20;;;;;;;5.54;90.36;99796.22;5050846;28;20032;-72
2022/01/04 06:16:06;;;;;;;6.43;2.30;;;;;;;5.57;90.32;99792.31;5050744;28;20163;-73
2022/01/04 06:18:32;;;;;;;5.28;2.42;;;;;;;5.56;90.70;99788.03;5053886;28;20356;-71
2022/01/04 06:20:57;;;;;;;5.47;2.35;;;;;;;5.58;90.27;99788.63;5053135;28;20082;-71
2022/01/04 06:23:23;;;;;;;7.20;2.25;;;;;;;5.55;90.55;99779.25;5053906;28;20112;-71
2022/01/04 06:25:48;;;;;;;6.90;2.63;;;;;;;5.56;90.67;99778.19;5057823;28;20078;-72
2022/01/04 06:28:14;;;;;;;7.57;2.60;;;;;;;5.54;91.16;99771.50;5059790;28;20074;-74
2022/01/04 06:30:39;;;;;;;6.95;2.53;;;;;;;5.54;91.09;99764.34;5056254;28;20031;-71
2022/01/04 06:33:05;;;;;;;6.60;2.50;;;;;;;5.55;91.06;99760.66;5055202;28;20130;-72
2022/01/04 06:35:33;;;;;;;5.95;2.40;;;;;;;5.58;90.68;99759.38;5059353;28;20035;-71
2022/01/04 06:37:59;;;;;;;6.70;2.50;;;;;;;5.57;91.22;99766.56;5056683;28;20105;-72
2022/01/04 06:40:24;;;;;;;7.07;2.75;;;;;;;5.61;90.87;99756.25;5057649;28;20547;-73
2022/01/04 06:42:50;;;;;;;7.25;2.53;;;;;;;5.61;91.28;99759.72;5053560;28;20036;-71
2022/01/04 06:45:15;;;;;;;5.68;2.80;;;;;;;5.60;91.02;99760.75;5055158;28;20021;-71
2022/01/04 06:47:41;;;;;;;9.35;3.00;;;;;;;5.63;91.05;99743.53;5060414;28;20032;-71
2022/01/04 06:50:07;;;;;;;5.22;2.33;;;;;;;5.64;90.77;99730.00;5056278;28;20077;-72
2022/01/04 06:52:33;;;;;;;7.30;2.92;;;;;;;5.63;91.18;99730.25;5039271;28;20473;-71
2022/01/04 06:54:58;;;;;;;6.53;3.60;;;;;;;5.62;91.19;99728.63;5054055;28;20029;-71
2022/01/04 06:57:24;;;;;;;5.28;2.67;;;;;;;5.67;91.03;99734.81;5054173;28;20383;-71
2022/01/04 06:59:49;;;;;;;6.18;2.83;;;;;;;5.68;91.45;99733.78;5056844;28;20412;-73
2022/01/04 07:02:15;;;;;;;5.40;2.47;;;;;;;5.71;91.08;99735.94;5057330;28;20062;-73
2022/01/04 07:04:40;;;;;;;7.28;2.72;;;;;;;5.74;90.82;99742.63;5056279;28;20128;-71
2022/01/04 07:07:05;;;;;;;8.27;2.58;;;;;;;5.70;91.33;99744.97;5056626;28;20035;-72
2022/01/04 07:09:31;;;;;;;6.88;2.60;;;;;;;5.73;91.09;99741.81;5057735;28;20392;-71
2022/01/04 07:11:57;;;;;;;6.18;2.20;;;;;;;5.78;91.04;99738.47;5058432;28;20032;-71
2022/01/04 07:14:23;;;;;;;7.47;2.50;;;;;;;5.80;90.91;99740.88;5053584;28;20083;-71
2022/01/04 07:16:48;;;;;;;4.55;2.55;;;;;;;5.84;90.86;99742.00;5055758;28;20530;-73
2022/01/04 07:19:15;;;;;;;7.30;3.47;;;;;;;5.84;90.62;99732.19;5056514;28;20028;-73
2022/01/04 07:21:41;;;;;;;5.97;2.90;;;;;;;5.86;90.69;99726.63;5057164;28;20028;-71
2022/01/04 07:24:07;;;;;;;4.78;3.45;;;;;;;5.85;90.84;99728.47;5053643;28;20677;-71
2022/01/04 07:26:32;;;;;;;5.70;2.70;;;;;;;5.85;90.93;99730.31;5053016;28;20026;-73
2022/01/04 07:28:58;;;;;;;4.63;3.05;;;;;;;5.82;90.73;99726.31;5055677;28;20036;-71
2022/01/04 07:31:24;;;;;;;7.10;2.58;;;;;;;5.80;90.52;99723.09;5057490;28;20024;-72
2022/01/04 07:33:49;;;;;;;5.53;2.67;;;;;;;5.77;90.90;99720.91;5035767;28;20511;-73
2022/01/04 07:36:15;;;;;;;6.60;2.67;;;;;;;5.79;90.80;99723.31;5040227;28;20108;-73
2022/01/04 07:38:42;;;;;;;5.90;2.50;;;;;;;5.71;90.46;99717.34;5054021;28;20553;-71
2022/01/04 07:41:08;;;;;;;6.97;3.00;;;;;;;5.69;90.61;99723.94;5052692;28;20814;-71
2022/01/04 07:43:34;;;;;;;4.95;2.70;;;;;;;5.70;91.25;99720.25;5041471;28;20942;-72
2022/01/04 07:45:59;;;;;;;7.88;3.53;;;;;;;5.69;90.99;99703.50;5054051;28;20036;-72
2022/01/04 07:48:25;;;;;;;8.70;3.15;;;;;;;5.68;90.94;99701.09;5052177;28;20020;-71
2022/01/04 07:50:53;;;;;;;5.90;2.92;;;;;;;5.72;91.39;99710.19;5051805;28;20118;-72
2022/01/04 07:53:18;;;;;;;6.18;2.80;;;;;;;5.78;90.93;99701.25;5042148;28;20024;-71
2022/01/04 07:55:44;;;;;;;6.68;2.67;;;;;;;5.80;91.10;99703.66;5051751;28;20028;-71
2022/01/04 07:58:09;;;;;;;8.02;3.13;;;;;;;5.81;91.09;99697.31;5054018;28;20028;-71
2022/01/04 08:00:35;;;;;;;6.47;3.13;;;;;;;5.81;90.90;99699.97;5053028;28;20553;-71
2022/01/04 08:03:00;;;;;;;6.65;2.95;;;;;;;5.83;90.83;99697.88;5055570;28;20035;-73
2022/01/04 08:05:26;;;;;;;5.75;2.80;;;;;;;5.86;90.70;99697.38;5058293;28;20064;-71
2022/01/04 08:07:52;;;;;;;6.43;2.90;;;;;;;5.87;90.54;99699.78;5054241;28;20031;-72
2022/01/04 08:10:18;;;;;;;4.53;3.53;;;;;;;5.89;90.69;99692.38;5050928;28;20029;-71
2022/01/04 08:12:44;;;;;;;6.95;3.22;;;;;;;5.86;90.58;99687.53;5054973;28;20046;-71
2022/01/04 08:15:11;;;;;;;6.15;2.63;;;;;;;5.83;90.76;99676.59;5051136;28;20029;-71
2022/01/04 08:17:39;;;;;;;7.25;3.08;;;;;;;5.84;90.75;99673.69;5053902;28;20152;-72
2022/01/04 08:20:06;;;;;;;7.45;3.08;;;;;;;5.81;90.80;99678.69;5052700;28;20039;-71
2022/01/04 08:22:32;;;;;;;7.40;3.38;;;;;;;5.84;90.71;99672.91;5034343;28;20086;-70
2022/01/04 08:25:03;;;;;;;14.57;8.48;;;;;;;5.86;90.62;99663.63;5044227;28;20032;-71
2022/01/04 08:27:29;;;;;;;12.73;6.35;;;;;;;5.85;90.28;99663.88;5051417;28;20082;-72
2022/01/04 08:29:55;;;;;;;10.57;6.28;;;;;;;5.80;90.75;99661.16;5050798;28;20111;-71
2022/01/04 08:32:21;;;;;;;11.48;4.90;;;;;;;5.78;91.34;99657.94;5050072;28;20064;-71
2022/01/04 08:34:47;;;;;;;9.52;5.43;;;;;;;5.78;91.20;99665.91;5052803;28;20094;-71
2022/01/04 08:37:12;;;;;;;8.23;4.95;;;;;;;5.76;91.80;99658.97;5050988;28;20069;-71
2022/01/04 08:39:38;;;;;;;7.30;4.28;;;;;;;5.80;91.48;99658.47;5050768;28;20403;-70
2022/01/04 08:42:04;;;;;;;6.95;3.92;;;;;;;5.79;91.68;99659.53;5051960;28;20087;-71
2022/01/04 08:44:31;;;;;;;7.70;4.28;;;;;;;5.79;91.71;99670.97;5033476;28;20029;-70
2022/01/04 08:46:56;;;;;;;7.63;3.97;;;;;;;5.80;91.55;99677.09;5050528;28;20025;-71
2022/01/04 08:49:22;;;;;;;7.00;3.75;;;;;;;5.85;91.59;99670.00;5054859;28;20039;-71
2022/01/04 08:51:47;;;;;;;7.45;3.67;;;;;;;5.85;91.78;99669.19;5049348;28;20066;-72
2022/01/04 08:54:14;;;;;;;10.48;4.40;;;;;;;5.86;91.39;99670.78;5051692;28;20020;-71
2022/01/04 08:56:40;;;;;;;13.77;4.72;;;;;;;5.87;91.71;99675.06;5048771;28;20029;-71
2022/01/04 08:59:08;;;;;;;10.75;4.80;;;;;;;5.89;91.61;99664.97;5049420;28;20068;-71
2022/01/04 09:01:35;;;;;;;7.07;4.03;;;;;;;5.89;91.96;99657.00;5040278;28;20112;-70
2022/01/04 09:04:01;;;;;;;8.43;4.28;;;;;;;5.91;91.48;99657.59;5049356;28;20028;-72
2022/01/04 09:06:27;;;;;;;8.65;5.20;;;;;;;5.92;91.33;99649.38;5054765;28;20677;-71
2022/01/04 09:08:55;;;;;;;10.32;5.63;;;;;;;5.93;91.48;99639.56;5051310;28;20032;-70
2022/01/04 09:11:21;;;;;;;9.00;5.25;;;;;;;5.93;92.08;99629.75;5053352;28;20512;-71
2022/01/04 09:13:49;;;;;;;16.17;6.00;;;;;;;5.91;92.14;99625.69;5050761;28;20128;-73
2022/01/04 09:18:43;;;;;;;9.63;5.63;;;;;;;5.90;92.61;99632.06;5050049;28;20190;-71
2022/01/04 09:21:18;;;;;;;12.57;5.78;;;;;;;5.87;92.77;99625.34;5051019;28;20097;-72
2022/01/04 09:23:45;;;;;;;9.23;5.65;;;;;;;5.92;92.30;99622.78;5051806;28;20036;-71
2022/01/04 09:26:12;;;;;;;11.93;6.80;;;;;;;5.97;92.50;99609.59;5052487;28;20032;-72
2022/01/04 09:28:38;;;;;;;10.45;6.30;;;;;;;5.97;93.09;99608.78;5048769;28;20033;-71
2022/01/04 09:31:04;;;;;;;13.70;7.18;;;;;;;5.96;92.43;99600.00;5048733;28;20037;-74
2022/01/04 09:33:30;;;;;;;13.13;6.15;;;;;;;5.98;92.97;99594.44;5049042;28;20051;-72
2022/01/04 09:35:56;;;;;;;12.65;7.30;;;;;;;5.94;93.55;99594.13;5050662;28;20210;-71
2022/01/04 09:38:23;;;;;;;12.70;6.80;;;;;;;5.99;92.97;99596.06;5050468;28;20459;-71
2022/01/04 09:40:53;;;;;;;12.30;6.60;;;;;;;5.99;93.12;99601.38;5054483;28;20081;-72
2022/01/04 09:43:20;;;;;;;12.65;6.53;;;;;;;5.99;93.17;99602.16;5058093;28;20027;-73
2022/01/04 09:45:46;;;;;;;13.82;7.35;;;;;;;6.02;93.49;99584.91;5050286;28;20029;-72
2022/01/04 09:48:12;;;;;;;15.55;7.25;;;;;;;6.04;93.55;99578.28;5051214;28;20083;-71
2022/01/04 09:50:40;;;;;;;16.10;7.15;;;;;;;6.05;93.59;99573.78;5053910;28;20438;-71
2022/01/04 09:53:09;;;;;;;13.13;7.88;;;;;;;6.05;93.69;99568.47;5051702;28;20039;-73
2022/01/04 09:55:38;;;;;;;14.05;7.72;;;;;;;6.06;93.65;99570.88;5038519;28;20116;-71
2022/01/04 09:58:04;;;;;;;14.32;7.15;;;;;;;6.11;93.82;99553.41;5038926;28;20298;-72
2022/01/04 10:00:30;;;;;;;16.00;7.88;;;;;;;6.12;93.95;99549.69;5054787;28;20067;-71
2022/01/04 10:03:13;;;;;;;15.32;8.13;;;;;;;6.06;94.24;99536.31;5053478;28;20024;-71
2022/01/04 10:05:39;;;;;;;14.65;8.20;;;;;;;6.07;94.26;99535.25;5052031;28;20082;-71
2022/01/04 10:08:07;;;;;;;17.60;8.32;;;;;;;6.11;94.37;99538.25;5052389;28;20025;-71
2022/01/04 10:10:34;;;;;;;19.73;8.30;;;;;;;6.14;94.17;99536.94;5058040;28;20024;-72
2022/01/04 10:13:05;;;;;;;13.40;8.43;;;;;;;6.20;94.16;99535.94;5054242;28;20053;-71
2022/01/04 10:15:36;;;;;;;17.20;9.45;;;;;;;6.22;93.66;99528.50;5057482;28;20243;-71
2022/01/04 10:18:17;;;;;;;13.48;8.18;;;;;;;6.26;93.53;99525.09;5051024;28;20040;-72
2022/01/04 10:20:46;;;;;;;15.48;7.93;;;;;;;6.28;93.54;99524.84;5055905;28;20509;-71
2022/01/04 10:23:17;;;;;;;14.75;7.50;;;;;;;6.30;93.33;99517.44;5058086;28;20033;-71
2022/01/04 10:25:45;;;;;;;15.23;7.05;;;;;;;6.31;93.39;99503.88;5046417;28;20024;-73
2022/01/04 10:28:12;;;;;;;13.65;7.50;;;;;;;6.33;93.45;99496.47;5058363;28;20040;-71
2022/01/04 10:30:39;;;;;;;14.60;6.93;;;;;;;6.30;93.68;99494.31;5057523;28;20032;-71
2022/01/04 10:33:13;;;;;;;14.45;7.05;;;;;;;6.33;93.62;99483.16;5051103;28;20395;-71
2022/01/04 10:35:43;;;;;;;14.32;6.55;;;;;;;6.36;93.32;99479.19;5050685;28;20086;-72
2022/01/04 10:38:15;;;;;;;15.52;7.32;;;;;;;6.39;93.19;99472.56;5054287;28;20546;-71
2022/01/04 10:40:48;;;;;;;14.93;7.35;;;;;;;6.42;93.45;99470.19;5053074;28;20040;-72
2022/01/04 10:43:19;;;;;;;13.25;7.32;;;;;;;6.43;93.16;99469.13;5056857;28;20056;-71
2022/01/04 10:45:46;;;;;;;14.10;7.63;;;;;;;6.45;93.10;99466.22;5054470;28;20025;-72
2022/01/04 10:48:13;;;;;;;14.40;6.40;;;;;;;6.46;92.94;99462.50;5043656;28;20461;-71
2022/01/04 10:50:39;;;;;;;9.93;6.40;;;;;;;6.43;93.05;99455.84;5052793;28;20392;-71
2022/01/04 10:53:13;;;;;;;13.40;6.60;;;;;;;6.48;93.23;99463.09;5051797;28;20036;-71
2022/01/04 10:55:38;;;;;;;12.50;7.00;;;;;;;6.51;93.08;99457.25;5060031;28;20025;-71
2022/01/04 10:58:04;;;;;;;11.82;6.45;;;;;;;6.53;92.85;99466.59;5056793;28;20553;-72
2022/01/04 11:00:31;;;;;;;11.27;7.03;;;;;;;6.54;92.73;99465.53;5056670;28;20429;-73
2022/01/04 11:02:58;;;;;;;12.25;6.72;;;;;;;6.57;92.72;99458.88;5051765;28;20020;-71
2022/01/04 11:05:24;;;;;;;14.90;7.88;;;;;;;6.61;92.65;99467.97;5059616;28;20440;-72
2022/01/04 11:07:56;;;;;;;13.07;7.30;;;;;;;6.59;92.40;99472.75;5052676;28;20028;-72
2022/01/04 11:10:22;;;;;;;13.70;8.02;;;;;;;6.61;92.58;99465.31;5059189;28;20063;-71
2022/01/04 11:12:52;;;;;;;13.90;8.38;;;;;;;6.59;92.90;99464.75;5060450;28;20028;-73
2022/01/04 11:15:18;;;;;;;16.35;9.05;;;;;;;6.57;92.89;99459.69;5042517;28;20252;-73
2022/01/04 11:17:44;;;;;;;11.40;7.43;;;;;;;6.57;92.95;99473.00;5054234;28;20020;-71
2022/01/04 11:20:11;;;;;;;12.85;7.20;;;;;;;6.58;92.91;99471.94;5056706;28;20279;-71
2022/01/04 11:22:42;;;;;;;12.43;7.47;;;;;;;6.57;93.50;99469.53;5053778;28;20495;-72
2022/01/04 11:25:08;;;;;;;11.10;6.68;;;;;;;6.59;93.20;99468.22;5052042;28;21833;-71
2022/01/04 11:27:38;;;;;;;13.10;7.13;;;;;;;6.65;92.81;99467.22;5058488;28;20067;-72
2022/01/04 11:30:13;;;;;;;10.43;6.13;;;;;;;6.70;92.46;99465.66;5053293;28;20020;-73
2022/01/04 11:32:42;;;;;;;8.65;6.20;;;;;;;6.69;92.57;99458.75;5056053;28;20028;-72
2022/01/04 11:35:19;;;;;;;9.73;5.72;;;;;;;6.69;92.16;99456.88;5052896;28;20036;-72
2022/01/04 11:37:57;;;;;;;9.23;5.60;;;;;;;6.70;92.08;99453.16;5044792;28;20032;-72
2022/01/04 11:40:42;;;;;;;10.93;6.05;;;;;;;6.67;91.91;99440.38;5053023;28;20139;-71
2022/01/04 11:43:25;;;;;;;8.73;5.50;;;;;;;6.66;91.81;99444.09;5050718;28;20032;-71